Time;durP1;ratioP1;P1;durP2;ratioP2;P2;SDS_P1;SDS_P2;PMS_P1;PMS_P2;Temp;Humidity;BMP_temperature;BMP_pressure;BME280_temperature;BME280_humidity;BME280_pressure;Samples;Min_cycle;Max_cycle;Signal;HPM_P1;HPM_P2
2023/01/29 00:00:53;;;;;;;14.45;8.48;;;;;;;-0.38;95.02;94735.94;5110592;28;20198;-80
2023/01/29 00:03:20;;;;;;;17.17;8.70;;;;;;;-0.30;95.06;94742.66;5111775;28;20266;-79
2023/01/29 00:05:47;;;;;;;14.43;8.38;;;;;;;-0.29;94.67;94738.94;5111551;28;20263;-75
2023/01/29 00:08:15;;;;;;;17.13;9.10;;;;;;;-0.22;93.89;94744.84;5111363;28;20312;-79
2023/01/29 00:10:42;;;;;;;19.55;9.45;;;;;;;-0.07;93.22;94752.13;5111143;28;20213;-79
2023/01/29 00:13:09;;;;;;;14.82;7.80;;;;;;;0.00;92.04;94753.47;5111429;28;20551;-78
2023/01/29 00:15:36;;;;;;;6.53;3.33;;;;;;;0.00;91.83;94742.81;5098042;28;20268;-78
2023/01/29 00:18:03;;;;;;;4.47;2.78;;;;;;;-0.08;91.47;94740.66;5109669;28;20258;-78
2023/01/29 00:20:30;;;;;;;4.45;2.05;;;;;;;-0.03;91.91;94748.69;5111316;28;20225;-79
2023/01/29 00:22:57;;;;;;;5.30;2.92;;;;;;;-0.05;91.56;94760.66;5110383;28;20275;-78
2023/01/29 00:25:25;;;;;;;3.88;2.40;;;;;;;-0.03;92.08;94746.03;5110700;28;20680;-79
2023/01/29 00:27:52;;;;;;;3.75;2.70;;;;;;;-0.01;92.36;94762.53;5110794;28;20229;-78
2023/01/29 00:30:20;;;;;;;3.78;2.10;;;;;;;0.06;92.00;94756.16;5110362;28;20614;-79
2023/01/29 00:32:47;;;;;;;5.57;3.65;;;;;;;-0.05;91.60;94756.13;5110499;28;20208;-79
2023/01/29 00:35:13;;;;;;;4.30;2.13;;;;;;;-0.09;92.17;94768.34;5109859;28;20996;-78
2023/01/29 00:37:40;;;;;;;3.15;2.05;;;;;;;-0.09;92.13;94763.00;5110151;28;20198;-78
2023/01/29 00:40:08;;;;;;;4.40;3.13;;;;;;;-0.09;91.99;94765.69;5110004;28;20237;-79
2023/01/29 00:45:20;;;;;;;5.20;3.22;;;;;;;-0.06;92.18;94759.84;5110209;28;20556;-75
2023/01/29 00:47:47;;;;;;;7.43;3.53;;;;;;;-0.05;92.33;94761.44;5109656;28;20664;-78
2023/01/29 00:50:14;;;;;;;4.60;3.45;;;;;;;-0.02;92.07;94758.28;5105599;28;20255;-78
2023/01/29 00:52:41;;;;;;;4.80;2.72;;;;;;;-0.10;92.40;94758.75;5100932;28;20234;-77
2023/01/29 00:55:10;;;;;;;3.40;2.10;;;;;;;-0.07;92.75;94762.75;5110237;28;20202;-77
2023/01/29 00:57:38;;;;;;;5.97;2.28;;;;;;;-0.20;92.94;94764.03;5110180;28;20218;-78
2023/01/29 01:00:10;;;;;;;8.75;2.78;;;;;;;-0.19;93.57;94765.63;5109459;28;20725;-79
2023/01/29 01:05:21;;;;;;;4.80;2.45;;;;;;;-0.16;93.90;94765.13;5097470;28;20189;-78
2023/01/29 01:07:50;;;;;;;2.92;2.03;;;;;;;-0.11;94.08;94757.13;5110022;28;20201;-79
2023/01/29 01:10:20;;;;;;;1.35;1.20;;;;;;;-0.14;94.17;94756.88;5100798;28;20538;-79
2023/01/29 01:12:50;;;;;;;2.65;1.58;;;;;;;-0.09;93.97;94768.34;5105976;28;20271;-78
2023/01/29 01:15:17;;;;;;;3.97;1.65;;;;;;;-0.07;94.03;94755.56;5109872;28;20458;-80
2023/01/29 01:17:45;;;;;;;6.60;2.35;;;;;;;-0.12;94.57;94750.22;5095155;28;20640;-77
2023/01/29 01:20:13;;;;;;;8.30;4.40;;;;;;;-0.14;94.09;94749.69;5109364;28;20278;-78
2023/01/29 01:22:40;;;;;;;3.72;1.85;;;;;;;-0.17;94.03;94742.22;5109088;28;20202;-77
2023/01/29 01:25:07;;;;;;;6.72;3.15;;;;;;;-0.12;94.79;94747.56;5109194;28;20201;-79
2023/01/29 01:27:36;;;;;;;4.47;2.35;;;;;;;-0.04;94.93;94756.94;5105544;28;20291;-79
2023/01/29 01:30:05;;;;;;;3.13;2.35;;;;;;;0.00;94.33;94758.78;5100079;28;20201;-79
2023/01/29 01:32:32;;;;;;;4.80;2.80;;;;;;;-0.10;94.62;94748.09;5109615;28;20197;-78
2023/01/29 01:34:59;;;;;;;4.80;2.10;;;;;;;-0.07;94.59;94744.94;5108826;28;20232;-79
2023/01/29 01:37:26;;;;;;;2.47;2.00;;;;;;;-0.02;94.99;94755.63;5109268;28;20194;-79
2023/01/29 01:39:57;;;;;;;5.30;2.75;;;;;;;-0.13;94.45;94753.94;5109079;28;20236;-75
2023/01/29 01:42:28;;;;;;;1.70;1.05;;;;;;;-0.07;94.25;94752.91;5108826;28;20294;-78
2023/01/29 01:45:00;;;;;;;6.22;3.00;;;;;;;-0.13;94.49;94745.94;5108984;28;20697;-79
2023/01/29 01:47:38;;;;;;;5.30;2.63;;;;;;;-0.07;94.66;94754.78;5109693;28;20601;-78
2023/01/29 01:50:09;;;;;;;4.32;2.55;;;;;;;-0.12;94.51;94760.88;5093720;28;20254;-78
2023/01/29 01:52:41;;;;;;;2.47;1.70;;;;;;;-0.15;94.92;94763.25;5099377;28;20198;-79
2023/01/29 01:55:12;;;;;;;4.32;2.72;;;;;;;-0.21;95.34;94767.72;5109012;28;20301;-77
2023/01/29 01:57:40;;;;;;;2.88;2.03;;;;;;;-0.22;94.99;94766.13;5108957;28;20182;-78
2023/01/29 02:00:11;;;;;;;4.88;2.58;;;;;;;-0.24;95.04;94751.47;5108876;28;20236;-78
2023/01/29 02:10:58;;;;;;;5.13;2.80;;;;;;;-0.26;96.32;94775.69;5108922;28;20712;-77
2023/01/29 02:13:25;;;;;;;4.70;2.00;;;;;;;-0.27;96.44;94768.75;5109226;28;20263;-77
2023/01/29 02:15:51;;;;;;;5.97;2.97;;;;;;;-0.23;96.44;94775.16;5108655;28;20741;-77
2023/01/29 02:18:21;;;;;;;3.65;2.05;;;;;;;-0.25;97.13;94774.63;5108550;28;20278;-77
2023/01/29 02:21:07;;;;;;;4.68;2.85;;;;;;;-0.17;96.88;94776.00;5110438;28;20274;-78
2023/01/29 02:24:20;;;;;;;2.20;1.95;;;;;;;-0.24;97.50;94778.88;5112899;28;20672;-77
2023/01/29 02:27:06;;;;;;;3.83;2.95;;;;;;;-0.20;98.07;94774.66;5088068;28;20202;-78
2023/01/29 02:29:44;;;;;;;4.70;2.35;;;;;;;-0.34;98.50;94778.81;5112656;28;20198;-77
2023/01/29 02:32:20;;;;;;;6.05;1.92;;;;;;;-0.35;98.82;94785.19;5112056;28;20685;-77
2023/01/29 02:37:54;;;;;;;6.40;2.35;;;;;;;-0.22;98.96;94792.75;5100578;28;20209;-77
2023/01/29 02:40:29;;;;;;;5.10;2.80;;;;;;;-0.30;98.97;94792.44;5113023;28;20229;-77
2023/01/29 02:43:03;;;;;;;4.80;3.08;;;;;;;-0.38;99.14;94799.81;5112908;28;20713;-77
2023/01/29 02:45:35;;;;;;;3.03;2.15;;;;;;;-0.44;99.68;94800.06;5112936;28;20246;-78
2023/01/29 02:48:03;;;;;;;6.38;1.77;;;;;;;-0.45;99.68;94803.75;5112925;28;20584;-77
2023/01/29 02:50:37;;;;;;;3.78;3.10;;;;;;;-0.45;100.00;94798.44;5112393;28;20745;-77
2023/01/29 02:53:08;;;;;;;8.45;2.53;;;;;;;-0.37;100.00;94808.59;5112862;28;20197;-77
2023/01/29 02:55:41;;;;;;;2.45;1.90;;;;;;;-0.36;100.00;94802.22;5112829;28;20198;-77
2023/01/29 02:58:13;;;;;;;6.72;2.45;;;;;;;-0.33;100.00;94806.25;5112212;28;20739;-77
2023/01/29 03:00:44;;;;;;;3.88;2.28;;;;;;;-0.34;100.00;94799.31;5112381;28;20213;-77
2023/01/29 03:03:17;;;;;;;2.67;2.03;;;;;;;-0.28;100.00;94795.66;5112395;28;20610;-76
2023/01/29 03:05:52;;;;;;;3.25;2.33;;;;;;;-0.38;100.00;94793.69;5112002;28;20194;-77
2023/01/29 03:08:35;;;;;;;5.57;2.25;;;;;;;-0.26;100.00;94796.97;5105995;28;20205;-77
2023/01/29 03:11:05;;;;;;;2.47;1.95;;;;;;;-0.31;100.00;94796.94;5106531;28;20233;-76
2023/01/29 03:13:38;;;;;;;4.70;2.38;;;;;;;-0.26;100.00;94801.50;5111939;28;21056;-76
2023/01/29 03:16:12;;;;;;;4.22;2.30;;;;;;;-0.41;100.00;94799.53;5111345;28;20197;-76
2023/01/29 03:18:45;;;;;;;5.30;2.55;;;;;;;-0.29;100.00;94805.50;5111856;28;20634;-77
2023/01/29 03:32:23;;;;;;;2.97;1.80;;;;;;;-0.23;97.23;94806.31;5110624;28;20277;-78
2023/01/29 03:34:57;;;;;;;3.63;1.52;;;;;;;-0.20;96.04;94806.59;5111464;28;20679;-77
2023/01/29 03:37:30;;;;;;;4.15;2.25;;;;;;;-0.10;95.14;94805.88;5111621;28;20211;-77
2023/01/29 03:39:56;;;;;;;5.10;1.70;;;;;;;-0.13;95.54;94801.84;5111765;28;20220;-76
2023/01/29 03:42:29;;;;;;;3.72;1.92;;;;;;;0.00;94.46;94806.72;5111550;28;20201;-77
2023/01/29 03:45:07;;;;;;;1.95;1.42;;;;;;;-0.03;94.20;94807.25;5111207;28;20275;-75
2023/01/29 03:47:43;;;;;;;2.08;1.30;;;;;;;-0.03;93.89;94801.94;5102567;28;20209;-76
2023/01/29 03:50:16;;;;;;;2.55;2.17;;;;;;;-0.14;94.24;94808.25;5107638;28;20243;-78
2023/01/29 03:52:48;;;;;;;1.65;1.02;;;;;;;-0.20;95.29;94800.47;5110990;28;20197;-76
2023/01/29 03:55:20;;;;;;;2.10;1.40;;;;;;;-0.21;95.57;94799.69;5110793;28;20705;-76
2023/01/29 03:57:56;;;;;;;2.13;1.40;;;;;;;-0.34;96.18;94794.00;5110750;28;20192;-77
2023/01/29 04:00:28;;;;;;;1.77;1.52;;;;;;;-0.25;96.67;94809.22;5110651;28;20555;-78
2023/01/29 04:03:04;;;;;;;1.05;0.85;;;;;;;-0.18;96.82;94809.81;5110857;28;20185;-76
2023/01/29 04:05:37;;;;;;;1.98;1.48;;;;;;;-0.18;97.45;94799.16;5111180;28;20250;-77
2023/01/29 04:08:10;;;;;;;2.80;1.38;;;;;;;-0.18;97.24;94809.00;5110646;28;20693;-77
2023/01/29 04:10:41;;;;;;;5.18;1.55;;;;;;;-0.15;97.54;94804.00;5110912;28;20250;-77
2023/01/29 04:13:13;;;;;;;1.92;1.10;;;;;;;-0.24;97.54;94810.81;5110833;28;20194;-77
2023/01/29 04:15:45;;;;;;;0.95;0.82;;;;;;;-0.19;97.81;94818.84;5110740;28;20194;-76
2023/01/29 04:18:14;;;;;;;2.95;1.85;;;;;;;-0.27;98.14;94811.31;5097046;28;20639;-76
2023/01/29 04:20:41;;;;;;;1.17;1.08;;;;;;;-0.35;98.24;94814.47;5110649;28;20286;-76
2023/01/29 04:23:21;;;;;;;4.85;1.55;;;;;;;-0.36;98.67;94810.22;5110646;28;20254;-74
2023/01/29 04:25:54;;;;;;;2.58;1.52;;;;;;;-0.32;98.44;94811.31;5110348;28;20186;-77
2023/01/29 04:28:26;;;;;;;2.80;1.35;;;;;;;-0.25;98.00;94819.06;5110195;28;20284;-77
2023/01/29 04:30:57;;;;;;;1.35;1.13;;;;;;;-0.33;98.28;94823.00;5110140;28;20194;-78
2023/01/29 04:33:34;;;;;;;1.17;1.08;;;;;;;-0.37;98.49;94816.59;5110382;28;20201;-77
2023/01/29 04:36:13;;;;;;;1.70;1.20;;;;;;;-0.37;98.24;94814.72;5089958;28;20225;-77
2023/01/29 04:38:56;;;;;;;3.65;1.48;;;;;;;-0.31;97.82;94820.91;5105819;28;20255;-78
2023/01/29 04:41:31;;;;;;;1.17;1.08;;;;;;;-0.31;97.96;94826.22;5111029;28;20218;-78
2023/01/29 04:44:03;;;;;;;2.35;1.65;;;;;;;-0.37;98.27;94827.22;5110087;28;20597;-78
2023/01/29 04:46:35;;;;;;;2.05;1.58;;;;;;;-0.37;98.29;94827.22;5111342;28;20243;-76
2023/01/29 04:49:16;;;;;;;2.83;1.27;;;;;;;-0.36;97.74;94820.84;5097077;28;20189;-78
2023/01/29 04:51:51;;;;;;;1.50;1.40;;;;;;;-0.35;97.70;94822.47;5107252;28;20935;-77
2023/01/29 04:54:28;;;;;;;4.28;1.77;;;;;;;-0.38;98.07;94823.75;5100991;28;20197;-77
2023/01/29 04:57:00;;;;;;;1.48;0.75;;;;;;;-0.37;97.66;94822.72;5109927;28;20204;-77
2023/01/29 04:59:32;;;;;;;7.25;1.63;;;;;;;-0.24;97.61;94832.13;5110263;28;20198;-77
2023/01/29 05:02:01;;;;;;;1.90;1.38;;;;;;;-0.24;96.72;94832.13;5109534;28;20222;-77
2023/01/29 05:04:32;;;;;;;2.33;1.35;;;;;;;-0.28;96.94;94830.25;5109768;28;20272;-77
2023/01/29 05:07:03;;;;;;;1.92;1.35;;;;;;;-0.28;96.75;94833.72;5109539;28;20649;-77
2023/01/29 05:09:30;;;;;;;1.67;1.20;;;;;;;-0.20;96.85;94822.56;5109775;28;20284;-77
2023/01/29 05:11:58;;;;;;;2.25;1.20;;;;;;;-0.19;96.37;94837.50;5109523;28;20209;-77
2023/01/29 05:14:29;;;;;;;1.52;1.13;;;;;;;-0.29;96.37;94839.28;5109990;28;20216;-76
2023/01/29 05:16:58;;;;;;;2.95;1.58;;;;;;;-0.21;96.05;94836.94;5109737;28;20198;-76
2023/01/29 05:19:25;;;;;;;0.98;0.75;;;;;;;-0.15;95.72;94841.25;5109441;28;20267;-77
2023/01/29 05:21:54;;;;;;;1.33;1.20;;;;;;;-0.26;96.19;94841.41;5109368;28;20230;-78
2023/01/29 05:24:23;;;;;;;2.17;1.33;;;;;;;-0.31;97.07;94836.88;5109512;28;20239;-78
2023/01/29 05:29:37;;;;;;;1.25;1.15;;;;;;;-0.14;95.93;94842.06;5097265;28;20319;-76
2023/01/29 05:32:04;;;;;;;2.30;1.48;;;;;;;-0.13;96.18;94840.97;5108932;28;20204;-77
2023/01/29 05:34:30;;;;;;;1.98;1.30;;;;;;;-0.24;95.96;94849.94;5109131;28;20664;-76
2023/01/29 05:36:58;;;;;;;2.05;1.17;;;;;;;-0.26;96.64;94850.19;5109197;28;20641;-78
2023/01/29 05:39:25;;;;;;;2.53;1.58;;;;;;;-0.16;96.51;94860.13;5109335;28;20213;-77
2023/01/29 05:41:52;;;;;;;1.35;1.25;;;;;;;-0.22;96.27;94856.63;5109374;28;20236;-77
2023/01/29 05:44:19;;;;;;;3.13;1.65;;;;;;;-0.17;96.46;94854.00;5109447;28;20205;-76
2023/01/29 05:46:45;;;;;;;1.00;1.00;;;;;;;-0.12;96.10;94862.03;5109368;28;20212;-78
2023/01/29 05:49:12;;;;;;;2.15;1.27;;;;;;;-0.07;96.22;94859.41;5108956;28;20246;-77
2023/01/29 05:51:39;;;;;;;3.75;2.15;;;;;;;-0.14;96.14;94855.38;5108957;28;20205;-77
2023/01/29 05:54:07;;;;;;;2.45;1.83;;;;;;;-0.09;96.48;94863.38;5108965;28;20243;-76
2023/01/29 05:56:34;;;;;;;3.60;2.05;;;;;;;-0.21;96.97;94863.56;5108629;28;20226;-78
2023/01/29 05:59:01;;;;;;;2.65;1.52;;;;;;;-0.27;96.82;94853.91;5108594;28;20262;-77
2023/01/29 06:01:27;;;;;;;4.78;1.98;;;;;;;-0.29;97.15;94856.06;5108770;28;20233;-76
2023/01/29 06:03:54;;;;;;;1.88;1.23;;;;;;;-0.34;97.48;94863.97;5109179;28;20209;-77
2023/01/29 06:06:21;;;;;;;3.40;1.40;;;;;;;-0.32;97.44;94871.72;5108726;28;20665;-77
2023/01/29 06:08:48;;;;;;;1.65;1.52;;;;;;;-0.34;97.82;94874.63;5108454;28;20789;-77
2023/01/29 06:11:18;;;;;;;1.85;1.75;;;;;;;-0.18;97.96;94873.69;5108618;28;20281;-77
2023/01/29 06:13:45;;;;;;;0.77;0.65;;;;;;;-0.05;98.12;94875.94;5108510;28;20209;-78
2023/01/29 06:16:13;;;;;;;0.43;0.43;;;;;;;-0.10;97.12;94886.53;5108495;28;20617;-75
2023/01/29 06:18:41;;;;;;;1.95;1.25;;;;;;;-0.05;97.45;94889.25;5108327;28;20251;-76
2023/01/29 06:21:10;;;;;;;1.58;1.48;;;;;;;-0.01;97.22;94893.00;5108764;28;20290;-76
2023/01/29 06:23:37;;;;;;;2.60;1.40;;;;;;;-0.04;96.98;94890.84;5108359;28;20256;-76
2023/01/29 06:26:06;;;;;;;2.45;1.42;;;;;;;-0.08;97.62;94895.06;5108383;28;20201;-76
2023/01/29 06:28:34;;;;;;;2.35;1.40;;;;;;;0.00;97.74;94899.91;5108314;28;20239;-77
2023/01/29 06:31:03;;;;;;;5.70;2.20;;;;;;;-0.01;97.18;94906.31;5108390;28;20213;-77
2023/01/29 06:33:30;;;;;;;2.08;1.65;;;;;;;-0.08;97.11;94904.91;5108292;28;20605;-76
2023/01/29 06:35:57;;;;;;;2.05;1.50;;;;;;;-0.09;97.11;94914.75;5108270;28;20955;-76
2023/01/29 06:38:24;;;;;;;3.08;2.13;;;;;;;0.10;97.15;94917.03;5108329;28;20908;-76
2023/01/29 06:40:51;;;;;;;1.90;1.25;;;;;;;0.16;96.87;94918.66;5108287;28;20275;-76
2023/01/29 06:43:18;;;;;;;1.58;0.90;;;;;;;0.13;96.91;94905.88;5108663;28;20198;-75
2023/01/29 06:45:51;;;;;;;3.92;2.05;;;;;;;0.23;96.46;94917.41;5108760;28;20800;-75
2023/01/29 06:48:18;;;;;;;1.45;1.35;;;;;;;0.25;96.54;94909.16;5108696;28;20198;-76
2023/01/29 06:50:45;;;;;;;6.25;2.47;;;;;;;0.20;95.90;94911.78;5108418;28;20330;-75
2023/01/29 06:53:12;;;;;;;3.20;1.85;;;;;;;0.17;96.14;94922.94;5108416;28;20201;-75
2023/01/29 06:55:39;;;;;;;3.03;1.80;;;;;;;0.27;96.27;94928.38;5108729;28;20202;-76
2023/01/29 06:58:07;;;;;;;2.08;1.35;;;;;;;0.34;96.43;94928.94;5108452;28;20201;-76
2023/01/29 07:00:34;;;;;;;3.70;1.83;;;;;;;0.30;95.27;94930.50;5108062;28;21016;-75
2023/01/29 07:03:03;;;;;;;1.67;1.27;;;;;;;0.55;94.71;94924.53;5108282;28;20208;-75
2023/01/29 07:05:30;;;;;;;5.30;2.45;;;;;;;0.39;95.46;94918.31;5108737;28;20201;-76
2023/01/29 07:07:57;;;;;;;2.75;1.83;;;;;;;0.52;94.90;94923.19;5110788;28;20202;-75
2023/01/29 07:10:24;;;;;;;1.85;1.30;;;;;;;0.34;94.28;94924.41;5112070;28;20288;-76
2023/01/29 07:12:50;;;;;;;2.67;1.50;;;;;;;0.36;95.24;94932.16;5112004;28;20205;-75
2023/01/29 07:15:19;;;;;;;2.95;1.70;;;;;;;0.30;95.04;94938.50;5111627;28;20672;-77
2023/01/29 07:17:56;;;;;;;2.42;2.00;;;;;;;0.56;95.07;94939.47;5111874;28;20576;-78
2023/01/29 07:20:24;;;;;;;3.33;2.17;;;;;;;0.62;94.61;94946.44;5111381;28;20201;-77
2023/01/29 07:22:51;;;;;;;2.35;2.03;;;;;;;0.53;94.73;94950.66;5111440;28;20278;-77
2023/01/29 07:25:18;;;;;;;3.05;1.83;;;;;;;1.67;100.00;94941.78;5111162;28;20664;-79
2023/01/29 07:27:45;;;;;;;4.72;2.10;;;;;;;1.95;99.50;94940.50;5111484;28;20236;-80
2023/01/29 07:30:13;;;;;;;7.90;2.78;;;;;;;2.52;99.21;94940.25;5111085;28;20672;-81
2023/01/29 07:32:39;;;;;;;5.05;2.45;;;;;;;1.56;90.83;94948.19;5111447;28;20202;-78
2023/01/29 07:35:07;;;;;;;7.30;2.30;;;;;;;1.14;92.89;94946.44;5112581;28;20262;-79
2023/01/29 07:37:35;;;;;;;6.30;3.45;;;;;;;0.80;92.83;94948.69;5113018;28;20664;-79
2023/01/29 07:40:03;;;;;;;4.35;2.45;;;;;;;0.65;94.25;94946.75;5112023;28;20198;-79
2023/01/29 07:42:30;;;;;;;6.25;2.42;;;;;;;0.91;94.40;94954.88;5111380;28;20228;-78
2023/01/29 07:44:57;;;;;;;6.03;3.03;;;;;;;1.09;93.32;94954.44;5111382;28;20621;-77
2023/01/29 07:47:23;;;;;;;3.70;2.30;;;;;;;0.75;92.78;94950.50;5112130;28;20205;-78
2023/01/29 07:49:50;;;;;;;2.33;2.13;;;;;;;1.06;92.81;94963.75;5111365;28;20209;-78
2023/01/29 07:52:17;;;;;;;4.80;1.80;;;;;;;0.97;91.93;94964.47;5112105;28;20197;-77
2023/01/29 07:54:45;;;;;;;6.45;3.05;;;;;;;0.87;92.53;94964.44;5111765;28;20230;-77
2023/01/29 07:57:12;;;;;;;2.80;1.83;;;;;;;1.01;92.80;94960.25;5110763;28;20242;-80
2023/01/29 07:59:39;;;;;;;5.65;3.67;;;;;;;1.02;92.80;94962.66;5111430;28;20198;-80
2023/01/29 08:02:06;;;;;;;3.55;1.88;;;;;;;1.03;92.95;94964.25;5110525;28;20651;-79
2023/01/29 08:04:32;;;;;;;6.47;3.17;;;;;;;1.01;93.51;94968.25;5110787;28;20197;-78
2023/01/29 08:06:59;;;;;;;4.35;2.75;;;;;;;0.94;93.14;94970.34;5110638;28;20250;-78
2023/01/29 08:09:26;;;;;;;2.90;2.45;;;;;;;0.71;93.42;94968.88;5110876;28;20263;-79
2023/01/29 08:11:54;;;;;;;6.97;3.20;;;;;;;0.78;93.22;94966.81;5111739;28;20205;-80
2023/01/29 08:14:21;;;;;;;3.78;2.08;;;;;;;0.75;94.22;94972.63;5112531;28;20198;-79
2023/01/29 08:16:47;;;;;;;3.55;2.28;;;;;;;0.60;94.29;94970.69;5111295;28;20198;-82
2023/01/29 08:19:14;;;;;;;2.88;2.35;;;;;;;0.47;94.63;94965.78;5111313;28;20221;-82
2023/01/29 08:21:41;;;;;;;3.10;2.40;;;;;;;0.49;95.71;94974.34;5110749;28;20270;-82
2023/01/29 08:24:08;;;;;;;4.97;3.13;;;;;;;0.43;95.85;94972.69;5110590;28;20920;-82
2023/01/29 08:26:35;;;;;;;2.75;1.80;;;;;;;0.47;95.57;94976.44;5111064;28;20250;-81
2023/01/29 08:29:03;;;;;;;5.35;2.83;;;;;;;0.61;94.92;94972.28;5110290;28;20275;-82
2023/01/29 08:31:30;;;;;;;5.53;2.40;;;;;;;0.53;94.05;94980.78;5110761;28;20310;-82
2023/01/29 08:33:57;;;;;;;5.53;3.53;;;;;;;0.46;94.06;94980.19;5106453;28;20197;-78
2023/01/29 08:36:24;;;;;;;4.50;2.33;;;;;;;0.40;92.68;94975.88;5104256;28;20312;-79
2023/01/29 08:38:51;;;;;;;4.20;3.05;;;;;;;0.39;93.13;94978.81;5107934;28;20777;-80
2023/01/29 08:41:18;;;;;;;6.20;3.28;;;;;;;0.40;93.22;94986.53;5108308;28;20286;-80
2023/01/29 08:43:45;;;;;;;5.97;2.88;;;;;;;0.48;92.43;94996.72;5109343;28;20202;-79
2023/01/29 08:46:13;;;;;;;1.67;1.13;;;;;;;0.55;92.92;94996.47;5110762;28;20209;-77
2023/01/29 08:48:40;;;;;;;6.18;3.40;;;;;;;0.57;92.71;94995.16;5109982;28;20198;-77
2023/01/29 08:51:07;;;;;;;4.28;2.47;;;;;;;0.87;91.38;94997.25;5109601;28;20278;-79
2023/01/29 08:53:33;;;;;;;4.55;2.33;;;;;;;0.90;91.18;94988.72;5109092;28;20701;-78
2023/01/29 08:56:00;;;;;;;2.78;1.92;;;;;;;0.87;90.05;94991.09;5109279;28;20246;-75
2023/01/29 08:58:27;;;;;;;8.32;2.67;;;;;;;0.68;90.35;95004.84;5108335;28;20211;-75
2023/01/29 09:00:54;;;;;;;5.57;3.22;;;;;;;0.71;90.64;95009.66;5109059;28;20796;-78
2023/01/29 09:03:22;;;;;;;2.35;1.45;;;;;;;0.83;91.03;95006.00;5108036;28;20225;-78
2023/01/29 09:05:48;;;;;;;2.70;2.22;;;;;;;0.61;91.03;95009.59;5109125;28;20201;-80
2023/01/29 09:08:15;;;;;;;7.20;3.35;;;;;;;0.69;91.37;95008.31;5110469;28;20239;-80
2023/01/29 09:10:42;;;;;;;6.32;1.83;;;;;;;0.69;91.11;95006.44;5109728;28;20197;-79
2023/01/29 09:13:09;;;;;;;5.10;3.50;;;;;;;0.74;91.43;95002.22;5109517;28;20194;-87
2023/01/29 09:15:35;;;;;;;7.47;4.25;;;;;;;0.96;91.00;95013.56;5109660;28;20193;-82
2023/01/29 09:18:04;;;;;;;6.25;3.63;;;;;;;0.93;90.18;95003.41;5109891;28;20222;-87
2023/01/29 09:20:32;;;;;;;3.95;2.65;;;;;;;0.98;89.04;95009.56;5112578;28;20304;-81
2023/01/29 09:23:04;;;;;;;5.65;3.85;;;;;;;0.92;89.29;95007.94;5110293;28;20287;-83
2023/01/29 09:25:31;;;;;;;3.40;1.95;;;;;;;0.96;89.13;95005.53;5107107;28;20190;-85
2023/01/29 09:27:58;;;;;;;6.88;4.20;;;;;;;0.86;89.14;95005.50;5111281;28;20198;-83
2023/01/29 09:30:25;;;;;;;4.75;2.28;;;;;;;0.89;89.32;95004.97;5108387;28;20718;-84
2023/01/29 09:32:52;;;;;;;9.23;4.65;;;;;;;0.74;89.30;95002.22;5109301;28;20535;-81
2023/01/29 09:35:18;;;;;;;3.13;2.45;;;;;;;0.55;90.21;94999.94;5109318;28;20278;-83
2023/01/29 09:37:48;;;;;;;2.13;1.88;;;;;;;0.82;89.87;94996.44;5111596;28;20255;-83
2023/01/29 09:40:25;;;;;;;8.05;3.45;;;;;;;0.88;89.61;95003.38;5108093;28;20202;-86
2023/01/29 09:42:57;;;;;;;2.92;2.22;;;;;;;0.73;90.39;95000.63;5105905;28;20215;-84
2023/01/29 09:45:26;;;;;;;4.50;2.67;;;;;;;0.86;90.40;94994.81;5108205;28;20258;-81
2023/01/29 09:48:00;;;;;;;3.30;2.42;;;;;;;0.85;89.65;94993.22;5116848;28;20234;-86
2023/01/29 09:50:31;;;;;;;6.85;3.58;;;;;;;0.76;89.78;94992.91;5119660;28;20197;-86
2023/01/29 09:53:08;;;;;;;7.40;3.08;;;;;;;1.07;89.13;94980.56;5119690;28;20185;-88
2023/01/29 09:55:40;;;;;;;4.20;3.13;;;;;;;1.22;87.97;94991.31;5116783;28;20555;-86
2023/01/29 09:58:14;;;;;;;5.50;3.08;;;;;;;0.75;89.33;94977.97;5106094;28;20206;-87
2023/01/29 10:00:48;;;;;;;3.85;1.83;;;;;;;0.99;88.76;94989.03;5124201;28;20613;-87
2023/01/29 10:03:29;;;;;;;4.45;3.00;;;;;;;0.95;89.39;94987.97;5112389;28;20247;-83
2023/01/29 10:06:11;;;;;;;8.18;3.33;;;;;;;1.03;88.72;94982.94;5108486;28;20201;-85
2023/01/29 10:09:09;;;;;;;6.93;4.13;;;;;;;0.96;89.48;94978.88;5104309;28;20190;-88
2023/01/29 10:11:46;;;;;;;5.68;2.92;;;;;;;0.80;89.46;94980.69;5118356;28;20182;-86
2023/01/29 10:14:22;;;;;;;6.03;2.60;;;;;;;0.76;89.85;94970.78;5118549;28;20202;-88
2023/01/29 10:17:01;;;;;;;5.95;3.38;;;;;;;0.51;90.82;94969.56;5123142;28;20563;-85
2023/01/29 10:19:49;;;;;;;67.85;4.82;;;;;;;0.75;89.95;94974.50;5122160;28;20215;-85
2023/01/29 10:22:45;;;;;;;10.52;3.53;;;;;;;0.65;89.91;94968.06;5111233;28;20217;-81
2023/01/29 10:25:16;;;;;;;9.50;3.28;;;;;;;0.52;91.17;94962.38;5108604;28;20220;-83
2023/01/29 10:27:48;;;;;;;4.28;2.78;;;;;;;0.57;91.26;94965.84;5111846;28;20194;-84
2023/01/29 10:30:27;;;;;;;8.27;4.40;;;;;;;0.54;90.91;94966.38;5104152;28;20202;-81
2023/01/29 10:32:55;;;;;;;4.60;3.25;;;;;;;0.57;91.20;94960.53;5110367;28;20243;-83
2023/01/29 10:35:24;;;;;;;4.13;2.65;;;;;;;0.66;91.01;94961.66;5110245;28;20314;-84
2023/01/29 10:37:53;;;;;;;2.33;1.67;;;;;;;0.62;90.88;94963.22;5112227;28;20656;-86
2023/01/29 10:40:27;;;;;;;7.10;2.83;;;;;;;0.69;91.03;94961.13;5110372;28;20663;-84
2023/01/29 10:43:04;;;;;;;6.57;4.63;;;;;;;0.56;91.22;94953.59;5110765;28;20218;-82
2023/01/29 10:45:41;;;;;;;4.32;2.45;;;;;;;0.48;91.51;94955.94;5113990;28;20194;-83
2023/01/29 10:48:42;;;;;;;7.22;3.30;;;;;;;0.57;91.58;94959.72;5113606;28;20199;-83
2023/01/29 10:51:21;;;;;;;8.77;4.15;;;;;;;0.64;91.34;94958.44;5108339;28;20208;-82
2023/01/29 10:54:01;;;;;;;4.15;2.55;;;;;;;0.77;91.63;94959.06;5108618;28;21451;-83
2023/01/29 10:56:43;;;;;;;6.70;3.78;;;;;;;0.74;90.79;94954.22;5110312;28;20216;-81
2023/01/29 10:59:27;;;;;;;7.03;4.07;;;;;;;0.57;91.40;94955.19;5096195;28;20258;-84
2023/01/29 11:01:57;;;;;;;5.93;3.70;;;;;;;0.54;91.20;94945.06;5101126;28;20210;-82
2023/01/29 11:04:26;;;;;;;8.93;3.85;;;;;;;0.62;91.37;94951.78;5107759;28;20281;-84
2023/01/29 11:06:53;;;;;;;5.43;3.05;;;;;;;0.81;91.24;94952.97;5114244;28;20201;-84
2023/01/29 11:09:30;;;;;;;6.60;2.92;;;;;;;0.97;90.54;94948.47;5112556;28;20202;-84
2023/01/29 11:12:02;;;;;;;7.63;2.85;;;;;;;0.82;90.51;94941.22;5112820;28;20201;-82
2023/01/29 11:14:38;;;;;;;9.27;4.18;;;;;;;0.71;90.68;94945.69;5114160;28;20190;-84
2023/01/29 11:17:05;;;;;;;5.22;2.28;;;;;;;0.86;90.68;94933.50;5114161;28;20213;-84
2023/01/29 11:19:38;;;;;;;4.82;3.05;;;;;;;0.86;90.51;94942.31;5112972;28;20595;-86
2023/01/29 11:22:08;;;;;;;6.57;3.72;;;;;;;0.76;90.65;94936.13;5112250;28;20274;-83
2023/01/29 11:24:34;;;;;;;5.78;3.03;;;;;;;1.01;90.33;94933.56;5113004;28;20279;-83
2023/01/29 11:27:15;;;;;;;8.02;5.07;;;;;;;1.11;90.70;94924.81;5101608;28;20748;-84
2023/01/29 11:29:44;;;;;;;4.32;2.65;;;;;;;1.04;89.92;94927.72;5108273;28;20200;-85
2023/01/29 11:32:14;;;;;;;9.23;3.80;;;;;;;1.16;89.92;94920.31;5110057;28;20245;-81
2023/01/29 11:34:58;;;;;;;5.43;3.13;;;;;;;1.29;89.16;94919.81;5112644;28;20202;-80
2023/01/29 11:37:33;;;;;;;8.35;3.78;;;;;;;1.13;88.43;94915.47;5111508;28;20213;-79
2023/01/29 11:40:00;;;;;;;7.15;4.03;;;;;;;1.29;88.36;94914.47;5111722;28;20652;-79
2023/01/29 11:42:32;;;;;;;7.32;3.47;;;;;;;1.27;88.45;94905.94;5086474;28;20270;-77
2023/01/29 11:45:00;;;;;;;5.47;2.90;;;;;;;1.36;87.91;94904.38;5109897;28;20205;-79
2023/01/29 11:47:29;;;;;;;6.70;3.40;;;;;;;1.82;87.04;94890.28;5111699;28;20941;-79
2023/01/29 11:49:58;;;;;;;3.38;2.75;;;;;;;2.24;85.85;94888.13;5108474;28;20204;-75
2023/01/29 11:52:27;;;;;;;6.93;4.07;;;;;;;1.96;85.58;94894.03;5106862;28;20669;-78
2023/01/29 11:54:59;;;;;;;10.15;4.72;;;;;;;1.59;86.57;94888.94;5097265;28;20202;-76
2023/01/29 11:57:31;;;;;;;8.13;4.53;;;;;;;1.42;87.50;94895.31;5100700;28;20194;-77
2023/01/29 12:00:03;;;;;;;6.20;3.50;;;;;;;1.24;87.91;94893.09;5110088;28;20201;-78
2023/01/29 12:02:34;;;;;;;8.13;4.18;;;;;;;1.48;87.74;94884.66;5111053;28;20300;-78
2023/01/29 12:05:05;;;;;;;7.35;3.80;;;;;;;1.60;87.31;94885.19;5110375;28;20206;-78
2023/01/29 12:07:34;;;;;;;5.22;2.97;;;;;;;1.76;87.19;94892.16;5110996;28;20215;-77
2023/01/29 12:10:01;;;;;;;11.25;4.22;;;;;;;1.45;87.29;94890.50;5102811;28;20203;-79
2023/01/29 12:12:33;;;;;;;11.77;5.07;;;;;;;1.39;88.63;94893.16;5089921;28;20262;-77
2023/01/29 12:15:18;;;;;;;5.90;2.95;;;;;;;1.53;87.46;94876.63;5098672;28;20243;-77
2023/01/29 12:17:52;;;;;;;3.00;2.53;;;;;;;1.18;88.42;94886.16;5110147;28;20982;-77
2023/01/29 12:20:27;;;;;;;10.52;5.28;;;;;;;1.31;88.46;94888.34;5110971;28;20194;-77
2023/01/29 12:23:02;;;;;;;8.27;3.45;;;;;;;1.48;87.72;94884.66;5096911;28;20217;-76